sensor_id;sensor_type;location;lat;lon;timestamp;temperature;humidity
52656;SHT85;35474;51.032;6.998;2024-03-17T00:00:16;6.04;84.09
52656;SHT85;35474;51.032;6.998;2024-03-17T00:02:44;5.96;84.26
52656;SHT85;35474;51.032;6.998;2024-03-17T00:05:10;5.95;84.43
52656;SHT85;35474;51.032;6.998;2024-03-17T00:07:35;5.95;84.14
52656;SHT85;35474;51.032;6.998;2024-03-17T00:10:01;5.87;84.25
52656;SHT85;35474;51.032;6.998;2024-03-17T00:12:27;5.76;84.65
52656;SHT85;35474;51.032;6.998;2024-03-17T00:14:53;5.83;84.70
52656;SHT85;35474;51.032;6.998;2024-03-17T00:17:18;5.79;84.68
52656;SHT85;35474;51.032;6.998;2024-03-17T00:19:46;5.72;84.73
52656;SHT85;35474;51.032;6.998;2024-03-17T00:22:12;5.72;84.82
52656;SHT85;35474;51.032;6.998;2024-03-17T00:24:39;5.67;84.89
52656;SHT85;35474;51.032;6.998;2024-03-17T00:27:06;5.65;84.94
52656;SHT85;35474;51.032;6.998;2024-03-17T00:29:31;5.63;85.19
52656;SHT85;35474;51.032;6.998;2024-03-17T00:31:57;5.54;85.10
52656;SHT85;35474;51.032;6.998;2024-03-17T00:34:23;5.48;85.22
52656;SHT85;35474;51.032;6.998;2024-03-17T00:36:49;5.49;85.67
52656;SHT85;35474;51.032;6.998;2024-03-17T00:39:16;5.39;85.57
52656;SHT85;35474;51.032;6.998;2024-03-17T00:41:43;5.56;85.81
52656;SHT85;35474;51.032;6.998;2024-03-17T00:44:09;5.52;85.70
52656;SHT85;35474;51.032;6.998;2024-03-17T00:46:35;5.55;85.69
52656;SHT85;35474;51.032;6.998;2024-03-17T00:49:00;5.48;85.84
52656;SHT85;35474;51.032;6.998;2024-03-17T00:51:26;5.49;85.74
52656;SHT85;35474;51.032;6.998;2024-03-17T00:53:52;5.55;85.92
52656;SHT85;35474;51.032;6.998;2024-03-17T00:56:17;5.42;86.08
52656;SHT85;35474;51.032;6.998;2024-03-17T01:00:33;5.52;85.75
52656;SHT85;35474;51.032;6.998;2024-03-17T01:02:59;5.35;86.21
52656;SHT85;35474;51.032;6.998;2024-03-17T01:05:24;5.55;85.96
52656;SHT85;35474;51.032;6.998;2024-03-17T01:07:50;5.60;85.98
52656;SHT85;35474;51.032;6.998;2024-03-17T01:10:15;5.54;86.15
52656;SHT85;35474;51.032;6.998;2024-03-17T01:12:41;5.35;86.00
52656;SHT85;35474;51.032;6.998;2024-03-17T01:15:08;5.48;86.37
52656;SHT85;35474;51.032;6.998;2024-03-17T01:17:34;5.62;86.11
52656;SHT85;35474;51.032;6.998;2024-03-17T01:19:59;5.49;86.03
52656;SHT85;35474;51.032;6.998;2024-03-17T01:22:25;5.44;86.20
52656;SHT85;35474;51.032;6.998;2024-03-17T01:24:51;5.39;86.43
52656;SHT85;35474;51.032;6.998;2024-03-17T01:27:16;5.41;86.33
52656;SHT85;35474;51.032;6.998;2024-03-17T01:29:42;5.34;86.59
52656;SHT85;35474;51.032;6.998;2024-03-17T01:32:08;5.31;86.78
52656;SHT85;35474;51.032;6.998;2024-03-17T01:34:36;5.23;86.70
52656;SHT85;35474;51.032;6.998;2024-03-17T01:37:02;5.24;87.25
52656;SHT85;35474;51.032;6.998;2024-03-17T01:39:28;5.17;87.22
52656;SHT85;35474;51.032;6.998;2024-03-17T01:41:53;5.13;87.18
52656;SHT85;35474;51.032;6.998;2024-03-17T01:44:23;5.13;87.31
52656;SHT85;35474;51.032;6.998;2024-03-17T01:46:53;5.04;87.58
52656;SHT85;35474;51.032;6.998;2024-03-17T01:49:21;5.08;87.68
52656;SHT85;35474;51.032;6.998;2024-03-17T01:51:47;5.17;87.53
52656;SHT85;35474;51.032;6.998;2024-03-17T01:54:13;5.00;87.89
52656;SHT85;35474;51.032;6.998;2024-03-17T01:56:40;5.00;87.78
52656;SHT85;35474;51.032;6.998;2024-03-17T01:59:07;4.91;88.10
52656;SHT85;35474;51.032;6.998;2024-03-17T02:01:34;4.84;88.30
52656;SHT85;35474;51.032;6.998;2024-03-17T02:04:00;4.94;88.11
52656;SHT85;35474;51.032;6.998;2024-03-17T02:06:26;4.98;88.32
52656;SHT85;35474;51.032;6.998;2024-03-17T02:08:53;4.90;88.42
52656;SHT85;35474;51.032;6.998;2024-03-17T02:11:30;4.76;88.41
52656;SHT85;35474;51.032;6.998;2024-03-17T02:13:57;4.87;88.42
52656;SHT85;35474;51.032;6.998;2024-03-17T02:16:24;4.73;88.59
52656;SHT85;35474;51.032;6.998;2024-03-17T02:18:56;4.70;88.85
52656;SHT85;35474;51.032;6.998;2024-03-17T02:21:23;4.60;88.98
52656;SHT85;35474;51.032;6.998;2024-03-17T02:23:59;4.83;88.73
52656;SHT85;35474;51.032;6.998;2024-03-17T02:26:25;4.83;88.72
52656;SHT85;35474;51.032;6.998;2024-03-17T02:28:51;4.67;88.95
52656;SHT85;35474;51.032;6.998;2024-03-17T02:31:17;4.83;88.96
52656;SHT85;35474;51.032;6.998;2024-03-17T02:33:43;4.63;88.84
52656;SHT85;35474;51.032;6.998;2024-03-17T02:36:10;4.67;89.16
52656;SHT85;35474;51.032;6.998;2024-03-17T02:38:37;4.57;88.91
52656;SHT85;35474;51.032;6.998;2024-03-17T02:41:23;4.50;89.12
52656;SHT85;35474;51.032;6.998;2024-03-17T02:43:49;4.57;89.31
52656;SHT85;35474;51.032;6.998;2024-03-17T02:46:15;4.46;89.24
52656;SHT85;35474;51.032;6.998;2024-03-17T02:48:42;4.41;89.28
52656;SHT85;35474;51.032;6.998;2024-03-17T02:51:12;4.57;89.32
52656;SHT85;35474;51.032;6.998;2024-03-17T02:53:46;4.48;89.61
52656;SHT85;35474;51.032;6.998;2024-03-17T02:56:13;4.52;89.09
52656;SHT85;35474;51.032;6.998;2024-03-17T02:58:42;4.42;89.15
52656;SHT85;35474;51.032;6.998;2024-03-17T03:01:08;4.39;89.26
52656;SHT85;35474;51.032;6.998;2024-03-17T03:03:37;4.44;89.14
52656;SHT85;35474;51.032;6.998;2024-03-17T03:06:05;4.28;89.23
52656;SHT85;35474;51.032;6.998;2024-03-17T03:08:41;4.34;89.49
52656;SHT85;35474;51.032;6.998;2024-03-17T03:11:10;4.31;89.45
52656;SHT85;35474;51.032;6.998;2024-03-17T03:13:40;4.19;89.38
52656;SHT85;35474;51.032;6.998;2024-03-17T03:16:07;4.04;89.56
52656;SHT85;35474;51.032;6.998;2024-03-17T03:18:35;4.07;89.73
52656;SHT85;35474;51.032;6.998;2024-03-17T03:21:00;3.98;89.93
52656;SHT85;35474;51.032;6.998;2024-03-17T03:23:26;4.07;90.12
52656;SHT85;35474;51.032;6.998;2024-03-17T03:25:55;4.02;90.16
52656;SHT85;35474;51.032;6.998;2024-03-17T03:28:22;3.95;90.26
52656;SHT85;35474;51.032;6.998;2024-03-17T03:30:48;3.88;90.39
52656;SHT85;35474;51.032;6.998;2024-03-17T03:33:14;3.91;90.49
52656;SHT85;35474;51.032;6.998;2024-03-17T03:35:39;4.08;90.56
52656;SHT85;35474;51.032;6.998;2024-03-17T03:38:09;3.94;90.54
52656;SHT85;35474;51.032;6.998;2024-03-17T03:40:35;4.02;90.64
52656;SHT85;35474;51.032;6.998;2024-03-17T03:43:00;3.98;90.83
52656;SHT85;35474;51.032;6.998;2024-03-17T03:45:26;3.90;90.73
52656;SHT85;35474;51.032;6.998;2024-03-17T03:47:53;3.88;90.96
52656;SHT85;35474;51.032;6.998;2024-03-17T03:50:21;3.74;91.08
52656;SHT85;35474;51.032;6.998;2024-03-17T03:52:48;3.74;90.98
52656;SHT85;35474;51.032;6.998;2024-03-17T03:55:15;3.64;90.90
52656;SHT85;35474;51.032;6.998;2024-03-17T03:57:42;3.55;91.01
52656;SHT85;35474;51.032;6.998;2024-03-17T04:00:11;3.57;91.03
52656;SHT85;35474;51.032;6.998;2024-03-17T04:02:38;3.63;91.19
52656;SHT85;35474;51.032;6.998;2024-03-17T04:05:04;3.60;91.21
52656;SHT85;35474;51.032;6.998;2024-03-17T04:07:31;3.53;91.18
52656;SHT85;35474;51.032;6.998;2024-03-17T04:09:56;3.62;91.45
52656;SHT85;35474;51.032;6.998;2024-03-17T04:12:23;3.53;91.34
52656;SHT85;35474;51.032;6.998;2024-03-17T04:14:49;3.62;91.55
52656;SHT85;35474;51.032;6.998;2024-03-17T04:17:21;3.57;91.45
52656;SHT85;35474;51.032;6.998;2024-03-17T04:19:48;3.64;91.61
52656;SHT85;35474;51.032;6.998;2024-03-17T04:22:14;3.55;91.68
52656;SHT85;35474;51.032;6.998;2024-03-17T04:24:45;3.57;91.84
52656;SHT85;35474;51.032;6.998;2024-03-17T04:27:12;3.57;91.94
52656;SHT85;35474;51.032;6.998;2024-03-17T04:29:38;3.56;92.00
52656;SHT85;35474;51.032;6.998;2024-03-17T04:32:05;3.50;91.91
52656;SHT85;35474;51.032;6.998;2024-03-17T04:34:31;3.53;91.95
52656;SHT85;35474;51.032;6.998;2024-03-17T04:36:57;3.67;91.87
52656;SHT85;35474;51.032;6.998;2024-03-17T04:39:23;3.70;92.06
52656;SHT85;35474;51.032;6.998;2024-03-17T04:41:50;3.70;92.06
52656;SHT85;35474;51.032;6.998;2024-03-17T04:44:16;3.88;91.63
52656;SHT85;35474;51.032;6.998;2024-03-17T04:46:42;3.98;91.59
52656;SHT85;35474;51.032;6.998;2024-03-17T04:49:07;4.02;91.23
52656;SHT85;35474;51.032;6.998;2024-03-17T04:51:34;4.01;91.14
52656;SHT85;35474;51.032;6.998;2024-03-17T04:54:00;3.95;91.21
52656;SHT85;35474;51.032;6.998;2024-03-17T04:56:28;3.87;90.92
52656;SHT85;35474;51.032;6.998;2024-03-17T04:58:54;3.88;90.76
52656;SHT85;35474;51.032;6.998;2024-03-17T05:01:19;3.97;90.44
52656;SHT85;35474;51.032;6.998;2024-03-17T05:03:45;4.05;90.36
52656;SHT85;35474;51.032;6.998;2024-03-17T05:06:10;3.98;89.93
52656;SHT85;35474;51.032;6.998;2024-03-17T05:08:36;4.01;89.89
52656;SHT85;35474;51.032;6.998;2024-03-17T05:11:05;3.91;89.96
52656;SHT85;35474;51.032;6.998;2024-03-17T05:13:31;3.83;89.75
52656;SHT85;35474;51.032;6.998;2024-03-17T05:15:59;3.93;89.84
52656;SHT85;35474;51.032;6.998;2024-03-17T05:18:25;3.81;89.96
52656;SHT85;35474;51.032;6.998;2024-03-17T05:20:58;3.93;89.95
52656;SHT85;35474;51.032;6.998;2024-03-17T05:23:28;3.99;90.00
52656;SHT85;35474;51.032;6.998;2024-03-17T05:25:54;3.95;89.75
52656;SHT85;35474;51.032;6.998;2024-03-17T05:28:20;3.98;89.72
52656;SHT85;35474;51.032;6.998;2024-03-17T05:30:46;3.94;89.49
52656;SHT85;35474;51.032;6.998;2024-03-17T05:33:13;3.95;89.34
52656;SHT85;35474;51.032;6.998;2024-03-17T05:35:39;3.99;89.26
52656;SHT85;35474;51.032;6.998;2024-03-17T05:38:05;3.99;89.13
52656;SHT85;35474;51.032;6.998;2024-03-17T05:40:35;3.86;89.31
52656;SHT85;35474;51.032;6.998;2024-03-17T05:43:06;3.91;89.53
52656;SHT85;35474;51.032;6.998;2024-03-17T05:45:32;3.84;89.40
52656;SHT85;35474;51.032;6.998;2024-03-17T05:47:58;3.71;89.47
52656;SHT85;35474;51.032;6.998;2024-03-17T05:50:23;3.77;89.76
52656;SHT85;35474;51.032;6.998;2024-03-17T05:52:49;3.87;89.84
52656;SHT85;35474;51.032;6.998;2024-03-17T05:55:15;3.83;89.87
52656;SHT85;35474;51.032;6.998;2024-03-17T05:57:41;3.80;89.69
52656;SHT85;35474;51.032;6.998;2024-03-17T06:00:09;3.76;89.63
52656;SHT85;35474;51.032;6.998;2024-03-17T06:02:35;3.83;89.76
52656;SHT85;35474;51.032;6.998;2024-03-17T06:05:00;3.86;89.99
52656;SHT85;35474;51.032;6.998;2024-03-17T06:07:29;3.90;89.76
52656;SHT85;35474;51.032;6.998;2024-03-17T06:09:56;3.93;89.82
52656;SHT85;35474;51.032;6.998;2024-03-17T06:12:22;3.90;89.81
52656;SHT85;35474;51.032;6.998;2024-03-17T06:14:47;3.91;89.83
52656;SHT85;35474;51.032;6.998;2024-03-17T06:17:15;3.94;89.74
52656;SHT85;35474;51.032;6.998;2024-03-17T06:19:41;3.94;89.74
52656;SHT85;35474;51.032;6.998;2024-03-17T06:22:06;3.99;89.87
52656;SHT85;35474;51.032;6.998;2024-03-17T06:24:32;4.04;89.90
52656;SHT85;35474;51.032;6.998;2024-03-17T06:26:57;3.94;90.04
52656;SHT85;35474;51.032;6.998;2024-03-17T06:29:23;4.11;90.15
52656;SHT85;35474;51.032;6.998;2024-03-17T06:31:49;4.14;90.20
52656;SHT85;35474;51.032;6.998;2024-03-17T06:34:14;4.29;90.05
52656;SHT85;35474;51.032;6.998;2024-03-17T06:36:41;4.35;89.81
52656;SHT85;35474;51.032;6.998;2024-03-17T06:39:07;4.52;89.76
52656;SHT85;35474;51.032;6.998;2024-03-17T06:41:33;4.56;89.51
52656;SHT85;35474;51.032;6.998;2024-03-17T06:43:58;4.65;89.38
52656;SHT85;35474;51.032;6.998;2024-03-17T06:46:24;4.79;89.15
52656;SHT85;35474;51.032;6.998;2024-03-17T06:48:50;4.79;88.94
52656;SHT85;35474;51.032;6.998;2024-03-17T06:51:16;4.93;89.13
52656;SHT85;35474;51.032;6.998;2024-03-17T06:53:42;5.11;88.47
52656;SHT85;35474;51.032;6.998;2024-03-17T06:56:07;5.17;87.82
52656;SHT85;35474;51.032;6.998;2024-03-17T06:58:33;5.37;87.77
52656;SHT85;35474;51.032;6.998;2024-03-17T07:01:00;5.32;87.50
52656;SHT85;35474;51.032;6.998;2024-03-17T07:03:27;5.46;87.23
52656;SHT85;35474;51.032;6.998;2024-03-17T07:05:55;5.52;86.84
52656;SHT85;35474;51.032;6.998;2024-03-17T07:08:21;5.58;86.87
52656;SHT85;35474;51.032;6.998;2024-03-17T07:10:55;5.66;86.80
52656;SHT85;35474;51.032;6.998;2024-03-17T07:13:24;5.69;86.73
52656;SHT85;35474;51.032;6.998;2024-03-17T07:15:50;5.51;87.01
52656;SHT85;35474;51.032;6.998;2024-03-17T07:18:15;5.62;87.08
52656;SHT85;35474;51.032;6.998;2024-03-17T07:20:41;5.65;86.56
52656;SHT85;35474;51.032;6.998;2024-03-17T07:23:07;5.60;86.75
52656;SHT85;35474;51.032;6.998;2024-03-17T07:25:33;5.60;86.87
52656;SHT85;35474;51.032;6.998;2024-03-17T07:27:59;5.60;86.81
52656;SHT85;35474;51.032;6.998;2024-03-17T07:32:33;5.70;86.93
52656;SHT85;35474;51.032;6.998;2024-03-17T07:34:59;5.70;86.60
52656;SHT85;35474;51.032;6.998;2024-03-17T07:37:24;5.83;86.81
52656;SHT85;35474;51.032;6.998;2024-03-17T07:39:50;6.11;86.21
52656;SHT85;35474;51.032;6.998;2024-03-17T07:42:15;6.23;84.83
52656;SHT85;35474;51.032;6.998;2024-03-17T07:44:43;6.34;84.69
52656;SHT85;35474;51.032;6.998;2024-03-17T07:47:09;6.47;83.80
52656;SHT85;35474;51.032;6.998;2024-03-17T07:49:35;7.17;81.91
52656;SHT85;35474;51.032;6.998;2024-03-17T07:52:00;7.53;79.97
52656;SHT85;35474;51.032;6.998;2024-03-17T07:54:28;8.50;78.77
52656;SHT85;35474;51.032;6.998;2024-03-17T07:56:54;8.07;77.77
52656;SHT85;35474;51.032;6.998;2024-03-17T07:59:20;7.98;78.23
52656;SHT85;35474;51.032;6.998;2024-03-17T08:01:47;7.88;78.76
52656;SHT85;35474;51.032;6.998;2024-03-17T08:04:12;8.54;77.69
52656;SHT85;35474;51.032;6.998;2024-03-17T08:06:41;9.12;75.33
52656;SHT85;35474;51.032;6.998;2024-03-17T08:09:07;8.77;75.94
52656;SHT85;35474;51.032;6.998;2024-03-17T08:11:34;8.87;76.71
52656;SHT85;35474;51.032;6.998;2024-03-17T08:14:03;9.90;74.22
52656;SHT85;35474;51.032;6.998;2024-03-17T08:16:30;9.39;74.24
52656;SHT85;35474;51.032;6.998;2024-03-17T08:18:56;9.62;73.14
52656;SHT85;35474;51.032;6.998;2024-03-17T08:21:22;9.89;73.16
52656;SHT85;35474;51.032;6.998;2024-03-17T08:23:48;9.84;71.24
52656;SHT85;35474;51.032;6.998;2024-03-17T08:26:14;9.49;72.00
52656;SHT85;35474;51.032;6.998;2024-03-17T08:28:39;9.23;73.17
52656;SHT85;35474;51.032;6.998;2024-03-17T08:31:05;8.92;73.96
52656;SHT85;35474;51.032;6.998;2024-03-17T08:33:31;8.98;74.51
52656;SHT85;35474;51.032;6.998;2024-03-17T08:36:05;9.01;74.32
52656;SHT85;35474;51.032;6.998;2024-03-17T08:38:32;9.44;73.81
52656;SHT85;35474;51.032;6.998;2024-03-17T08:41:02;9.89;72.15
52656;SHT85;35474;51.032;6.998;2024-03-17T08:43:32;10.66;68.79
52656;SHT85;35474;51.032;6.998;2024-03-17T08:46:01;10.63;68.81
52656;SHT85;35474;51.032;6.998;2024-03-17T08:48:32;10.60;69.20
52656;SHT85;35474;51.032;6.998;2024-03-17T08:50:59;11.07;68.18
52656;SHT85;35474;51.032;6.998;2024-03-17T08:53:26;10.41;68.81
52656;SHT85;35474;51.032;6.998;2024-03-17T08:55:53;10.58;68.47
52656;SHT85;35474;51.032;6.998;2024-03-17T08:58:19;11.26;66.92
52656;SHT85;35474;51.032;6.998;2024-03-17T09:00:45;10.56;67.55
52656;SHT85;35474;51.032;6.998;2024-03-17T09:03:11;10.44;68.43
52656;SHT85;35474;51.032;6.998;2024-03-17T09:05:41;10.31;68.08
52656;SHT85;35474;51.032;6.998;2024-03-17T09:08:14;10.45;68.26
52656;SHT85;35474;51.032;6.998;2024-03-17T09:10:42;10.72;67.66
52656;SHT85;35474;51.032;6.998;2024-03-17T09:13:15;11.21;66.11
52656;SHT85;35474;51.032;6.998;2024-03-17T09:18:22;11.39;65.36
52656;SHT85;35474;51.032;6.998;2024-03-17T09:21:05;11.07;65.77
52656;SHT85;35474;51.032;6.998;2024-03-17T09:23:32;11.00;65.97
52656;SHT85;35474;51.032;6.998;2024-03-17T09:26:03;11.17;66.43
52656;SHT85;35474;51.032;6.998;2024-03-17T09:28:37;11.20;66.07
52656;SHT85;35474;51.032;6.998;2024-03-17T09:31:02;11.17;65.92
52656;SHT85;35474;51.032;6.998;2024-03-17T09:33:32;11.41;66.36
52656;SHT85;35474;51.032;6.998;2024-03-17T09:35:59;11.18;66.82
52656;SHT85;35474;51.032;6.998;2024-03-17T09:38:30;10.84;67.36
52656;SHT85;35474;51.032;6.998;2024-03-17T09:40:56;11.11;66.90
52656;SHT85;35474;51.032;6.998;2024-03-17T09:43:35;10.99;67.20
52656;SHT85;35474;51.032;6.998;2024-03-17T09:46:05;11.37;65.76
52656;SHT85;35474;51.032;6.998;2024-03-17T09:48:31;11.38;65.62
52656;SHT85;35474;51.032;6.998;2024-03-17T09:50:57;11.48;65.73
52656;SHT85;35474;51.032;6.998;2024-03-17T09:53:28;11.45;66.18
52656;SHT85;35474;51.032;6.998;2024-03-17T09:56:30;11.31;65.79
52656;SHT85;35474;51.032;6.998;2024-03-17T09:58:51;11.76;65.47
52656;SHT85;35474;51.032;6.998;2024-03-17T10:01:19;11.83;65.41
52656;SHT85;35474;51.032;6.998;2024-03-17T10:06:22;12.14;65.27
52656;SHT85;35474;51.032;6.998;2024-03-17T10:08:51;11.78;65.28
52656;SHT85;35474;51.032;6.998;2024-03-17T10:11:22;11.83;64.97
52656;SHT85;35474;51.032;6.998;2024-03-17T10:16:33;12.02;64.35
52656;SHT85;35474;51.032;6.998;2024-03-17T10:19:16;12.00;64.42
52656;SHT85;35474;51.032;6.998;2024-03-17T10:21:47;11.95;64.26
52656;SHT85;35474;51.032;6.998;2024-03-17T10:24:20;11.79;64.57
52656;SHT85;35474;51.032;6.998;2024-03-17T10:29:26;11.63;64.93
52656;SHT85;35474;51.032;6.998;2024-03-17T10:31:58;11.45;66.10
52656;SHT85;35474;51.032;6.998;2024-03-17T10:34:27;11.76;64.84
52656;SHT85;35474;51.032;6.998;2024-03-17T10:39:38;12.43;63.72
52656;SHT85;35474;51.032;6.998;2024-03-17T10:42:05;12.51;63.12
52656;SHT85;35474;51.032;6.998;2024-03-17T10:44:31;12.31;63.10
52656;SHT85;35474;51.032;6.998;2024-03-17T10:47:00;12.23;64.27
52656;SHT85;35474;51.032;6.998;2024-03-17T10:49:28;12.38;63.49
52656;SHT85;35474;51.032;6.998;2024-03-17T10:52:01;12.43;64.42
52656;SHT85;35474;51.032;6.998;2024-03-17T10:54:29;12.85;62.98
52656;SHT85;35474;51.032;6.998;2024-03-17T10:56:57;12.92;63.61
52656;SHT85;35474;51.032;6.998;2024-03-17T10:59:41;13.06;62.45
52656;SHT85;35474;51.032;6.998;2024-03-17T11:04:53;13.77;60.61
52656;SHT85;35474;51.032;6.998;2024-03-17T11:07:23;14.56;57.69
52656;SHT85;35474;51.032;6.998;2024-03-17T11:09:50;13.73;60.74
52656;SHT85;35474;51.032;6.998;2024-03-17T11:20:34;14.80;56.76
52656;SHT85;35474;51.032;6.998;2024-03-17T11:23:02;13.57;60.53
52656;SHT85;35474;51.032;6.998;2024-03-17T11:27:56;14.06;59.78
52656;SHT85;35474;51.032;6.998;2024-03-17T11:41:41;15.74;55.93
52656;SHT85;35474;51.032;6.998;2024-03-17T11:46:41;14.40;58.65
52656;SHT85;35474;51.032;6.998;2024-03-17T11:49:17;13.97;60.70
52656;SHT85;35474;51.032;6.998;2024-03-17T11:51:46;14.51;59.38
52656;SHT85;35474;51.032;6.998;2024-03-17T11:54:15;14.19;59.59
52656;SHT85;35474;51.032;6.998;2024-03-17T11:56:47;14.56;58.55
52656;SHT85;35474;51.032;6.998;2024-03-17T11:59:14;14.22;59.10
52656;SHT85;35474;51.032;6.998;2024-03-17T12:01:46;14.05;59.81
52656;SHT85;35474;51.032;6.998;2024-03-17T12:04:23;14.44;58.90
52656;SHT85;35474;51.032;6.998;2024-03-17T12:06:59;14.83;58.50
52656;SHT85;35474;51.032;6.998;2024-03-17T12:09:26;14.97;56.95
52656;SHT85;35474;51.032;6.998;2024-03-17T12:14:27;14.53;58.55
52656;SHT85;35474;51.032;6.998;2024-03-17T12:16:54;14.80;58.78
52656;SHT85;35474;51.032;6.998;2024-03-17T12:19:22;14.73;58.32
52656;SHT85;35474;51.032;6.998;2024-03-17T12:21:49;14.98;57.11
52656;SHT85;35474;51.032;6.998;2024-03-17T12:24:20;15.03;57.29
52656;SHT85;35474;51.032;6.998;2024-03-17T12:26:51;14.77;57.15
52656;SHT85;35474;51.032;6.998;2024-03-17T12:32:04;14.35;57.77
52656;SHT85;35474;51.032;6.998;2024-03-17T12:34:32;14.12;58.70
52656;SHT85;35474;51.032;6.998;2024-03-17T12:36:59;14.30;58.73
52656;SHT85;35474;51.032;6.998;2024-03-17T12:39:27;14.51;58.64
52656;SHT85;35474;51.032;6.998;2024-03-17T12:44:31;14.98;57.31
52656;SHT85;35474;51.032;6.998;2024-03-17T12:47:01;15.27;56.56
52656;SHT85;35474;51.032;6.998;2024-03-17T12:49:30;15.27;56.41
52656;SHT85;35474;51.032;6.998;2024-03-17T12:51:58;15.42;56.94
52656;SHT85;35474;51.032;6.998;2024-03-17T12:54:25;15.69;55.67
52656;SHT85;35474;51.032;6.998;2024-03-17T12:56:53;14.87;57.61
52656;SHT85;35474;51.032;6.998;2024-03-17T12:59:50;15.20;57.61
52656;SHT85;35474;51.032;6.998;2024-03-17T13:02:40;14.80;58.43
52656;SHT85;35474;51.032;6.998;2024-03-17T13:07:33;14.85;58.15
52656;SHT85;35474;51.032;6.998;2024-03-17T13:09:59;15.10;58.13
52656;SHT85;35474;51.032;6.998;2024-03-17T13:12:25;14.49;57.52
52656;SHT85;35474;51.032;6.998;2024-03-17T13:14:50;14.48;57.87
52656;SHT85;35474;51.032;6.998;2024-03-17T13:17:16;15.04;57.65
52656;SHT85;35474;51.032;6.998;2024-03-17T13:19:45;15.21;57.23
52656;SHT85;35474;51.032;6.998;2024-03-17T13:22:12;15.11;56.70
52656;SHT85;35474;51.032;6.998;2024-03-17T13:24:37;14.74;56.87
52656;SHT85;35474;51.032;6.998;2024-03-17T13:27:03;14.72;57.36
52656;SHT85;35474;51.032;6.998;2024-03-17T13:29:34;14.85;57.53
52656;SHT85;35474;51.032;6.998;2024-03-17T13:32:04;14.91;57.93
52656;SHT85;35474;51.032;6.998;2024-03-17T13:34:30;14.94;57.53
52656;SHT85;35474;51.032;6.998;2024-03-17T13:36:56;14.85;57.47
52656;SHT85;35474;51.032;6.998;2024-03-17T13:39:22;14.88;57.60
52656;SHT85;35474;51.032;6.998;2024-03-17T13:41:49;14.62;58.93
52656;SHT85;35474;51.032;6.998;2024-03-17T13:44:18;14.44;58.97
52656;SHT85;35474;51.032;6.998;2024-03-17T13:46:44;14.25;59.11
52656;SHT85;35474;51.032;6.998;2024-03-17T13:49:10;14.08;59.95
52656;SHT85;35474;51.032;6.998;2024-03-17T13:51:36;14.14;60.17
52656;SHT85;35474;51.032;6.998;2024-03-17T13:54:02;14.33;60.19
52656;SHT85;35474;51.032;6.998;2024-03-17T13:56:28;14.16;60.72
52656;SHT85;35474;51.032;6.998;2024-03-17T13:58:54;14.19;60.52
52656;SHT85;35474;51.032;6.998;2024-03-17T14:01:19;14.37;60.20
52656;SHT85;35474;51.032;6.998;2024-03-17T14:03:45;14.32;59.84
52656;SHT85;35474;51.032;6.998;2024-03-17T14:06:11;14.08;61.02
52656;SHT85;35474;51.032;6.998;2024-03-17T14:08:37;13.91;59.63
52656;SHT85;35474;51.032;6.998;2024-03-17T14:11:03;13.93;60.16
52656;SHT85;35474;51.032;6.998;2024-03-17T14:13:32;13.98;60.44
52656;SHT85;35474;51.032;6.998;2024-03-17T14:15:57;14.06;60.43
52656;SHT85;35474;51.032;6.998;2024-03-17T14:18:23;14.32;59.66
52656;SHT85;35474;51.032;6.998;2024-03-17T14:20:48;14.01;60.09
52656;SHT85;35474;51.032;6.998;2024-03-17T14:23:15;13.97;60.10
52656;SHT85;35474;51.032;6.998;2024-03-17T14:25:42;14.19;59.95
52656;SHT85;35474;51.032;6.998;2024-03-17T14:28:08;14.15;60.02
52656;SHT85;35474;51.032;6.998;2024-03-17T14:30:34;14.11;60.79
52656;SHT85;35474;51.032;6.998;2024-03-17T14:33:00;14.32;60.09
52656;SHT85;35474;51.032;6.998;2024-03-17T14:35:25;14.18;60.59
52656;SHT85;35474;51.032;6.998;2024-03-17T14:37:55;14.36;60.16
52656;SHT85;35474;51.032;6.998;2024-03-17T14:40:23;14.64;60.10
52656;SHT85;35474;51.032;6.998;2024-03-17T14:42:49;14.32;59.99
52656;SHT85;35474;51.032;6.998;2024-03-17T14:45:16;14.30;60.38
52656;SHT85;35474;51.032;6.998;2024-03-17T14:47:42;14.62;59.70
52656;SHT85;35474;51.032;6.998;2024-03-17T14:50:09;14.72;59.81
52656;SHT85;35474;51.032;6.998;2024-03-17T14:52:39;14.90;59.37
52656;SHT85;35474;51.032;6.998;2024-03-17T14:55:08;14.98;58.37
52656;SHT85;35474;51.032;6.998;2024-03-17T14:57:36;14.60;59.71
52656;SHT85;35474;51.032;6.998;2024-03-17T15:00:04;14.69;59.71
52656;SHT85;35474;51.032;6.998;2024-03-17T15:02:44;14.80;59.26
52656;SHT85;35474;51.032;6.998;2024-03-17T15:05:14;15.17;58.99
52656;SHT85;35474;51.032;6.998;2024-03-17T15:07:40;15.39;57.72
52656;SHT85;35474;51.032;6.998;2024-03-17T15:10:06;15.25;57.69
52656;SHT85;35474;51.032;6.998;2024-03-17T15:12:33;14.97;58.77
52656;SHT85;35474;51.032;6.998;2024-03-17T15:14:58;15.36;57.96
52656;SHT85;35474;51.032;6.998;2024-03-17T15:17:24;15.56;56.90
52656;SHT85;35474;51.032;6.998;2024-03-17T15:19:50;15.34;57.30
52656;SHT85;35474;51.032;6.998;2024-03-17T15:22:16;15.32;57.46
52656;SHT85;35474;51.032;6.998;2024-03-17T15:24:41;15.34;58.07
52656;SHT85;35474;51.032;6.998;2024-03-17T15:27:07;14.88;58.13
52656;SHT85;35474;51.032;6.998;2024-03-17T15:29:35;15.10;58.59
52656;SHT85;35474;51.032;6.998;2024-03-17T15:32:01;15.61;57.54
52656;SHT85;35474;51.032;6.998;2024-03-17T15:34:26;15.97;56.76
52656;SHT85;35474;51.032;6.998;2024-03-17T15:36:56;15.56;56.58
52656;SHT85;35474;51.032;6.998;2024-03-17T15:39:22;15.46;57.22
52656;SHT85;35474;51.032;6.998;2024-03-17T15:41:48;15.49;57.53
52656;SHT85;35474;51.032;6.998;2024-03-17T15:44:14;15.62;56.53
52656;SHT85;35474;51.032;6.998;2024-03-17T15:46:41;15.49;56.39
52656;SHT85;35474;51.032;6.998;2024-03-17T15:49:07;15.42;56.71
52656;SHT85;35474;51.032;6.998;2024-03-17T15:51:33;15.35;56.70
52656;SHT85;35474;51.032;6.998;2024-03-17T15:53:58;15.05;57.26
52656;SHT85;35474;51.032;6.998;2024-03-17T15:56:24;15.03;57.79
52656;SHT85;35474;51.032;6.998;2024-03-17T15:58:49;15.18;57.14
52656;SHT85;35474;51.032;6.998;2024-03-17T16:01:15;15.17;57.21
52656;SHT85;35474;51.032;6.998;2024-03-17T16:03:41;15.07;57.54
52656;SHT85;35474;51.032;6.998;2024-03-17T16:06:13;15.24;57.31
52656;SHT85;35474;51.032;6.998;2024-03-17T16:08:43;15.49;56.56
52656;SHT85;35474;51.032;6.998;2024-03-17T16:11:10;15.49;56.48
52656;SHT85;35474;51.032;6.998;2024-03-17T16:13:40;15.51;56.16
52656;SHT85;35474;51.032;6.998;2024-03-17T16:16:07;15.27;57.09
52656;SHT85;35474;51.032;6.998;2024-03-17T16:18:36;15.20;57.55
52656;SHT85;35474;51.032;6.998;2024-03-17T16:21:04;15.10;58.39
52656;SHT85;35474;51.032;6.998;2024-03-17T16:23:36;15.17;58.47
52656;SHT85;35474;51.032;6.998;2024-03-17T16:26:04;15.28;58.42
52656;SHT85;35474;51.032;6.998;2024-03-17T16:28:30;15.24;58.29
52656;SHT85;35474;51.032;6.998;2024-03-17T16:30:56;15.12;58.23
52656;SHT85;35474;51.032;6.998;2024-03-17T16:33:23;14.95;58.30
52656;SHT85;35474;51.032;6.998;2024-03-17T16:35:51;14.97;58.72